sensor_id;sensor_type;location;lat;lon;timestamp;P1;P2;P0
77692;PMS5003;66984;47.404;18.836;2023-04-06T00:00:26;17.25;16.00;7.00
77692;PMS5003;66984;47.404;18.836;2023-04-06T00:01:29;16.00;15.50;6.00
77692;PMS5003;66984;47.404;18.836;2023-04-06T00:02:32;15.00;14.75;6.00
77692;PMS5003;66984;47.404;18.836;2023-04-06T00:03:35;14.00;14.00;6.00
77692;PMS5003;66984;47.404;18.836;2023-04-06T00:04:38;13.50;13.00;5.00
77692;PMS5003;66984;47.404;18.836;2023-04-06T00:05:41;13.75;13.00;5.00
77692;PMS5003;66984;47.404;18.836;2023-04-06T00:06:44;14.00;14.00;6.00
77692;PMS5003;66984;47.404;18.836;2023-04-06T00:07:47;13.00;12.00;5.50
77692;PMS5003;66984;47.404;18.836;2023-04-06T00:08:50;13.00;12.00;5.00
77692;PMS5003;66984;47.404;18.836;2023-04-06T00:09:53;12.00;11.25;4.00
77692;PMS5003;66984;47.404;18.836;2023-04-06T00:10:56;13.00;12.50;5.50
77692;PMS5003;66984;47.404;18.836;2023-04-06T00:11:59;13.00;12.75;3.75
77692;PMS5003;66984;47.404;18.836;2023-04-06T00:13:02;12.00;12.00;4.25
77692;PMS5003;66984;47.404;18.836;2023-04-06T00:14:06;13.75;12.00;6.00
77692;PMS5003;66984;47.404;18.836;2023-04-06T00:15:09;13.00;13.00;6.00
77692;PMS5003;66984;47.404;18.836;2023-04-06T00:16:12;13.00;13.00;6.00
77692;PMS5003;66984;47.404;18.836;2023-04-06T00:17:15;14.00;14.00;6.00
77692;PMS5003;66984;47.404;18.836;2023-04-06T00:18:18;13.00;13.00;5.00
77692;PMS5003;66984;47.404;18.836;2023-04-06T00:19:22;15.00;14.00;5.00
77692;PMS5003;66984;47.404;18.836;2023-04-06T00:20:24;14.50;13.50;6.00
77692;PMS5003;66984;47.404;18.836;2023-04-06T00:21:28;15.00;14.00;6.00
77692;PMS5003;66984;47.404;18.836;2023-04-06T00:22:30;15.00;14.00;6.00
77692;PMS5003;66984;47.404;18.836;2023-04-06T00:23:33;15.75;14.00;6.00
77692;PMS5003;66984;47.404;18.836;2023-04-06T00:24:36;13.00;12.00;6.00
77692;PMS5003;66984;47.404;18.836;2023-04-06T00:25:39;15.00;12.75;6.00
77692;PMS5003;66984;47.404;18.836;2023-04-06T00:26:42;13.00;12.00;5.00
77692;PMS5003;66984;47.404;18.836;2023-04-06T00:27:45;12.25;12.00;5.50
77692;PMS5003;66984;47.404;18.836;2023-04-06T00:28:48;12.00;11.50;5.00
77692;PMS5003;66984;47.404;18.836;2023-04-06T00:29:53;13.00;13.00;5.25
77692;PMS5003;66984;47.404;18.836;2023-04-06T00:30:55;14.25;14.00;5.25
77692;PMS5003;66984;47.404;18.836;2023-04-06T00:31:58;13.00;13.00;6.00
77692;PMS5003;66984;47.404;18.836;2023-04-06T00:33:01;13.00;12.25;4.75
77692;PMS5003;66984;47.404;18.836;2023-04-06T00:34:05;15.00;15.00;4.50
77692;PMS5003;66984;47.404;18.836;2023-04-06T00:35:08;14.00;14.00;5.00
77692;PMS5003;66984;47.404;18.836;2023-04-06T00:36:12;15.00;14.00;5.00
77692;PMS5003;66984;47.404;18.836;2023-04-06T00:37:14;14.00;12.00;5.00
77692;PMS5003;66984;47.404;18.836;2023-04-06T00:38:17;15.00;12.00;5.00
77692;PMS5003;66984;47.404;18.836;2023-04-06T00:39:21;14.00;12.00;6.00
77692;PMS5003;66984;47.404;18.836;2023-04-06T00:40:24;15.00;13.75;6.50
77692;PMS5003;66984;47.404;18.836;2023-04-06T00:41:28;15.00;14.00;6.00
77692;PMS5003;66984;47.404;18.836;2023-04-06T00:42:30;15.00;14.00;6.00
77692;PMS5003;66984;47.404;18.836;2023-04-06T00:43:33;14.00;13.00;6.00
77692;PMS5003;66984;47.404;18.836;2023-04-06T00:44:36;13.00;12.50;6.00
77692;PMS5003;66984;47.404;18.836;2023-04-06T00:45:40;16.00;15.00;6.00
77692;PMS5003;66984;47.404;18.836;2023-04-06T00:46:44;15.25;15.00;8.00
77692;PMS5003;66984;47.404;18.836;2023-04-06T00:47:47;16.00;15.75;6.00
77692;PMS5003;66984;47.404;18.836;2023-04-06T00:48:50;18.25;16.50;9.00
77692;PMS5003;66984;47.404;18.836;2023-04-06T00:49:54;18.75;17.00;8.50
77692;PMS5003;66984;47.404;18.836;2023-04-06T00:50:57;21.50;20.50;11.50
77692;PMS5003;66984;47.404;18.836;2023-04-06T00:52:01;29.75;24.25;15.50
77692;PMS5003;66984;47.404;18.836;2023-04-06T00:53:04;36.75;30.50;18.75
77692;PMS5003;66984;47.404;18.836;2023-04-06T00:54:07;39.75;32.75;20.50
77692;PMS5003;66984;47.404;18.836;2023-04-06T00:55:10;39.00;32.75;20.00
77692;PMS5003;66984;47.404;18.836;2023-04-06T00:56:13;31.50;27.00;16.75
77692;PMS5003;66984;47.404;18.836;2023-04-06T00:57:16;23.50;22.00;15.00
77692;PMS5003;66984;47.404;18.836;2023-04-06T00:58:19;20.25;19.00;13.00
77692;PMS5003;66984;47.404;18.836;2023-04-06T00:59:22;21.25;19.75;13.00
77692;PMS5003;66984;47.404;18.836;2023-04-06T01:00:25;25.00;22.50;14.75
77692;PMS5003;66984;47.404;18.836;2023-04-06T01:01:28;21.25;21.00;14.25
77692;PMS5003;66984;47.404;18.836;2023-04-06T01:02:32;19.50;19.00;14.00
77692;PMS5003;66984;47.404;18.836;2023-04-06T01:03:35;18.00;18.00;12.00
77692;PMS5003;66984;47.404;18.836;2023-04-06T01:04:38;16.00;16.00;9.00
77692;PMS5003;66984;47.404;18.836;2023-04-06T01:05:41;16.50;16.50;7.75
77692;PMS5003;66984;47.404;18.836;2023-04-06T01:06:45;18.00;15.75;7.00
77692;PMS5003;66984;47.404;18.836;2023-04-06T01:07:48;16.00;15.00;7.75
77692;PMS5003;66984;47.404;18.836;2023-04-06T01:08:50;17.00;17.00;7.25
77692;PMS5003;66984;47.404;18.836;2023-04-06T01:09:53;16.00;15.00;7.00
77692;PMS5003;66984;47.404;18.836;2023-04-06T01:10:58;16.00;15.00;6.00
77692;PMS5003;66984;47.404;18.836;2023-04-06T01:12:03;16.25;15.00;6.00
77692;PMS5003;66984;47.404;18.836;2023-04-06T01:13:06;21.00;18.00;9.25
77692;PMS5003;66984;47.404;18.836;2023-04-06T01:14:10;29.50;24.50;17.00
77692;PMS5003;66984;47.404;18.836;2023-04-06T01:15:13;44.25;36.50;24.00
77692;PMS5003;66984;47.404;18.836;2023-04-06T01:16:17;54.50;49.00;32.75
77692;PMS5003;66984;47.404;18.836;2023-04-06T01:17:21;52.00;45.25;29.75
77692;PMS5003;66984;47.404;18.836;2023-04-06T01:18:27;41.75;33.50;22.50
77692;PMS5003;66984;47.404;18.836;2023-04-06T01:19:31;30.75;26.25;17.25
77692;PMS5003;66984;47.404;18.836;2023-04-06T01:20:33;24.00;22.00;16.00
77692;PMS5003;66984;47.404;18.836;2023-04-06T01:21:37;22.75;21.00;15.00
77692;PMS5003;66984;47.404;18.836;2023-04-06T01:22:40;20.00;20.00;14.00
77692;PMS5003;66984;47.404;18.836;2023-04-06T01:23:44;22.00;21.25;15.00
77692;PMS5003;66984;47.404;18.836;2023-04-06T01:24:48;31.25;27.00;18.00
77692;PMS5003;66984;47.404;18.836;2023-04-06T01:25:50;32.75;27.00;17.25
77692;PMS5003;66984;47.404;18.836;2023-04-06T01:26:53;24.25;23.25;15.00
77692;PMS5003;66984;47.404;18.836;2023-04-06T01:27:56;24.00;22.00;15.00
77692;PMS5003;66984;47.404;18.836;2023-04-06T01:28:59;26.00;24.00;15.25
77692;PMS5003;66984;47.404;18.836;2023-04-06T01:30:03;24.50;22.00;15.00
77692;PMS5003;66984;47.404;18.836;2023-04-06T01:31:07;21.00;19.25;15.00
77692;PMS5003;66984;47.404;18.836;2023-04-06T01:32:11;22.00;19.00;12.50
77692;PMS5003;66984;47.404;18.836;2023-04-06T01:33:14;20.00;18.00;11.00
77692;PMS5003;66984;47.404;18.836;2023-04-06T01:34:17;19.00;18.00;12.00
77692;PMS5003;66984;47.404;18.836;2023-04-06T01:35:20;19.00;17.75;11.75
77692;PMS5003;66984;47.404;18.836;2023-04-06T01:36:23;18.00;17.50;10.00
77692;PMS5003;66984;47.404;18.836;2023-04-06T01:37:26;19.00;18.00;10.00
77692;PMS5003;66984;47.404;18.836;2023-04-06T01:38:29;18.00;18.00;10.00
77692;PMS5003;66984;47.404;18.836;2023-04-06T01:39:32;18.00;18.00;10.00
77692;PMS5003;66984;47.404;18.836;2023-04-06T01:40:35;18.00;17.00;10.50
77692;PMS5003;66984;47.404;18.836;2023-04-06T01:41:38;21.00;18.50;12.00
77692;PMS5003;66984;47.404;18.836;2023-04-06T01:42:40;20.00;19.00;10.00
77692;PMS5003;66984;47.404;18.836;2023-04-06T01:43:44;20.25;18.25;11.00
77692;PMS5003;66984;47.404;18.836;2023-04-06T01:44:48;22.00;20.50;14.50
77692;PMS5003;66984;47.404;18.836;2023-04-06T01:45:51;21.00;20.50;14.50
77692;PMS5003;66984;47.404;18.836;2023-04-06T01:46:54;21.00;20.00;15.00
77692;PMS5003;66984;47.404;18.836;2023-04-06T01:47:58;21.00;20.75;14.00
77692;PMS5003;66984;47.404;18.836;2023-04-06T01:49:00;20.00;19.00;13.00
77692;PMS5003;66984;47.404;18.836;2023-04-06T01:50:03;19.00;18.50;12.00
77692;PMS5003;66984;47.404;18.836;2023-04-06T01:51:08;16.00;15.00;11.00
77692;PMS5003;66984;47.404;18.836;2023-04-06T01:52:11;16.75;16.00;11.00
77692;PMS5003;66984;47.404;18.836;2023-04-06T01:53:14;16.25;14.50;8.50
77692;PMS5003;66984;47.404;18.836;2023-04-06T01:54:18;18.00;17.00;9.00
77692;PMS5003;66984;47.404;18.836;2023-04-06T01:55:21;18.00;17.00;9.00
77692;PMS5003;66984;47.404;18.836;2023-04-06T01:56:24;17.00;17.00;9.00
77692;PMS5003;66984;47.404;18.836;2023-04-06T01:57:27;18.00;17.00;8.00
77692;PMS5003;66984;47.404;18.836;2023-04-06T01:58:30;17.50;16.50;8.50
77692;PMS5003;66984;47.404;18.836;2023-04-06T01:59:33;17.00;17.00;10.00
77692;PMS5003;66984;47.404;18.836;2023-04-06T02:00:36;17.50;17.50;11.50
77692;PMS5003;66984;47.404;18.836;2023-04-06T02:01:39;18.00;18.00;10.00
77692;PMS5003;66984;47.404;18.836;2023-04-06T02:02:42;18.00;17.50;9.00
77692;PMS5003;66984;47.404;18.836;2023-04-06T02:03:45;18.00;17.50;9.00
77692;PMS5003;66984;47.404;18.836;2023-04-06T02:04:48;19.75;18.25;10.75
77692;PMS5003;66984;47.404;18.836;2023-04-06T02:05:52;21.00;20.00;10.00
77692;PMS5003;66984;47.404;18.836;2023-04-06T02:06:55;20.00;19.50;11.50
77692;PMS5003;66984;47.404;18.836;2023-04-06T02:07:57;19.00;19.00;11.50
77692;PMS5003;66984;47.404;18.836;2023-04-06T02:09:00;20.00;20.00;11.50
77692;PMS5003;66984;47.404;18.836;2023-04-06T02:10:03;21.00;20.00;11.00
77692;PMS5003;66984;47.404;18.836;2023-04-06T02:11:07;22.00;22.00;11.50
77692;PMS5003;66984;47.404;18.836;2023-04-06T02:12:10;21.00;21.00;13.00
77692;PMS5003;66984;47.404;18.836;2023-04-06T02:13:13;20.25;20.25;11.75
77692;PMS5003;66984;47.404;18.836;2023-04-06T02:14:15;19.00;18.00;12.00
77692;PMS5003;66984;47.404;18.836;2023-04-06T02:15:18;20.50;19.00;11.50
77692;PMS5003;66984;47.404;18.836;2023-04-06T02:16:21;20.50;19.50;12.50
77692;PMS5003;66984;47.404;18.836;2023-04-06T02:17:24;22.50;22.00;14.50
77692;PMS5003;66984;47.404;18.836;2023-04-06T02:18:28;23.50;22.00;14.50
77692;PMS5003;66984;47.404;18.836;2023-04-06T02:19:32;24.25;23.00;15.00
77692;PMS5003;66984;47.404;18.836;2023-04-06T02:20:35;32.50;27.75;18.00
77692;PMS5003;66984;47.404;18.836;2023-04-06T02:21:38;35.00;30.00;21.00
77692;PMS5003;66984;47.404;18.836;2023-04-06T02:22:41;35.25;29.50;20.50
77692;PMS5003;66984;47.404;18.836;2023-04-06T02:23:44;32.25;27.00;19.00
77692;PMS5003;66984;47.404;18.836;2023-04-06T02:24:47;27.00;24.00;17.25
77692;PMS5003;66984;47.404;18.836;2023-04-06T02:25:50;26.00;23.00;15.00
77692;PMS5003;66984;47.404;18.836;2023-04-06T02:26:53;25.50;23.50;14.50
77692;PMS5003;66984;47.404;18.836;2023-04-06T02:27:56;26.00;23.50;14.50
77692;PMS5003;66984;47.404;18.836;2023-04-06T02:28:59;26.75;23.50;16.00
77692;PMS5003;66984;47.404;18.836;2023-04-06T02:30:04;27.00;24.00;16.00
77692;PMS5003;66984;47.404;18.836;2023-04-06T02:31:08;27.00;24.00;16.00
77692;PMS5003;66984;47.404;18.836;2023-04-06T02:32:11;28.50;24.50;16.00
77692;PMS5003;66984;47.404;18.836;2023-04-06T02:33:14;30.75;26.50;17.00
77692;PMS5003;66984;47.404;18.836;2023-04-06T02:34:17;30.00;26.00;17.50
77692;PMS5003;66984;47.404;18.836;2023-04-06T02:35:20;26.50;24.00;17.00
77692;PMS5003;66984;47.404;18.836;2023-04-06T02:36:23;23.00;22.00;15.25
77692;PMS5003;66984;47.404;18.836;2023-04-06T02:37:26;20.75;20.25;14.00
77692;PMS5003;66984;47.404;18.836;2023-04-06T02:38:29;23.00;20.50;14.00
77692;PMS5003;66984;47.404;18.836;2023-04-06T02:39:32;23.00;20.75;13.75
77692;PMS5003;66984;47.404;18.836;2023-04-06T02:40:34;23.50;20.50;13.25
77692;PMS5003;66984;47.404;18.836;2023-04-06T02:41:37;25.75;22.00;14.00
77692;PMS5003;66984;47.404;18.836;2023-04-06T02:42:40;23.00;21.00;14.00
77692;PMS5003;66984;47.404;18.836;2023-04-06T02:43:43;21.50;20.00;13.00
77692;PMS5003;66984;47.404;18.836;2023-04-06T02:44:46;20.50;19.00;14.00
77692;PMS5003;66984;47.404;18.836;2023-04-06T02:45:49;20.50;19.50;14.00
77692;PMS5003;66984;47.404;18.836;2023-04-06T02:46:52;20.00;20.00;14.00
77692;PMS5003;66984;47.404;18.836;2023-04-06T02:47:55;19.00;17.25;13.00
77692;PMS5003;66984;47.404;18.836;2023-04-06T02:48:58;20.50;20.00;13.00
77692;PMS5003;66984;47.404;18.836;2023-04-06T02:50:02;25.00;23.00;13.00
77692;PMS5003;66984;47.404;18.836;2023-04-06T02:51:06;23.00;22.00;13.00
77692;PMS5003;66984;47.404;18.836;2023-04-06T02:52:09;23.50;22.25;13.75
77692;PMS5003;66984;47.404;18.836;2023-04-06T02:53:11;26.50;24.00;15.00
77692;PMS5003;66984;47.404;18.836;2023-04-06T02:54:14;29.00;26.00;16.00
77692;PMS5003;66984;47.404;18.836;2023-04-06T02:55:17;30.50;26.50;17.50
77692;PMS5003;66984;47.404;18.836;2023-04-06T02:56:22;33.50;28.25;18.00
77692;PMS5003;66984;47.404;18.836;2023-04-06T02:57:25;34.75;28.00;19.00
77692;PMS5003;66984;47.404;18.836;2023-04-06T02:58:28;33.00;28.00;17.00
77692;PMS5003;66984;47.404;18.836;2023-04-06T02:59:32;33.00;28.00;17.00
77692;PMS5003;66984;47.404;18.836;2023-04-06T03:00:34;30.50;27.00;17.00
77692;PMS5003;66984;47.404;18.836;2023-04-06T03:01:39;27.00;24.00;16.00
77692;PMS5003;66984;47.404;18.836;2023-04-06T03:02:42;23.50;22.75;14.00
77692;PMS5003;66984;47.404;18.836;2023-04-06T03:03:45;20.00;20.00;14.00
77692;PMS5003;66984;47.404;18.836;2023-04-06T03:04:48;21.00;20.00;14.00
77692;PMS5003;66984;47.404;18.836;2023-04-06T03:05:51;20.50;19.50;14.00
77692;PMS5003;66984;47.404;18.836;2023-04-06T03:06:56;21.00;20.00;14.00
77692;PMS5003;66984;47.404;18.836;2023-04-06T03:08:01;22.50;20.50;14.00
77692;PMS5003;66984;47.404;18.836;2023-04-06T03:09:05;27.50;23.25;14.00
77692;PMS5003;66984;47.404;18.836;2023-04-06T03:10:09;28.00;24.00;14.00
77692;PMS5003;66984;47.404;18.836;2023-04-06T03:11:12;28.75;24.50;15.00
77692;PMS5003;66984;47.404;18.836;2023-04-06T03:12:15;28.75;24.50;16.00
77692;PMS5003;66984;47.404;18.836;2023-04-06T03:13:18;29.00;26.00;16.00
77692;PMS5003;66984;47.404;18.836;2023-04-06T03:14:21;29.00;26.00;17.00
77692;PMS5003;66984;47.404;18.836;2023-04-06T03:15:24;28.75;26.00;17.00
77692;PMS5003;66984;47.404;18.836;2023-04-06T03:16:27;30.00;26.00;17.00
77692;PMS5003;66984;47.404;18.836;2023-04-06T03:17:30;28.75;25.75;16.75
77692;PMS5003;66984;47.404;18.836;2023-04-06T03:18:33;25.75;23.00;16.00
77692;PMS5003;66984;47.404;18.836;2023-04-06T03:19:36;26.00;23.00;14.25
77692;PMS5003;66984;47.404;18.836;2023-04-06T03:20:39;23.00;22.75;14.00
77692;PMS5003;66984;47.404;18.836;2023-04-06T03:21:42;23.00;22.00;14.00
77692;PMS5003;66984;47.404;18.836;2023-04-06T03:22:45;24.75;23.00;14.00
77692;PMS5003;66984;47.404;18.836;2023-04-06T03:23:48;25.00;22.50;14.00
77692;PMS5003;66984;47.404;18.836;2023-04-06T03:24:54;24.00;23.00;14.00
77692;PMS5003;66984;47.404;18.836;2023-04-06T03:25:57;26.00;23.00;14.00
77692;PMS5003;66984;47.404;18.836;2023-04-06T03:27:00;26.00;23.00;14.00
77692;PMS5003;66984;47.404;18.836;2023-04-06T03:28:03;24.50;23.00;14.00
77692;PMS5003;66984;47.404;18.836;2023-04-06T03:29:06;26.00;23.00;14.00
77692;PMS5003;66984;47.404;18.836;2023-04-06T03:30:09;24.00;23.00;14.00
77692;PMS5003;66984;47.404;18.836;2023-04-06T03:31:12;22.00;21.25;14.00
77692;PMS5003;66984;47.404;18.836;2023-04-06T03:32:15;20.25;20.00;14.00
77692;PMS5003;66984;47.404;18.836;2023-04-06T03:33:18;22.50;20.00;14.00
77692;PMS5003;66984;47.404;18.836;2023-04-06T03:34:21;23.00;21.75;14.00
77692;PMS5003;66984;47.404;18.836;2023-04-06T03:35:24;21.00;20.00;14.00
77692;PMS5003;66984;47.404;18.836;2023-04-06T03:36:27;23.00;22.25;13.00
77692;PMS5003;66984;47.404;18.836;2023-04-06T03:37:30;24.00;23.00;14.00
77692;PMS5003;66984;47.404;18.836;2023-04-06T03:38:33;26.00;22.00;14.00
77692;PMS5003;66984;47.404;18.836;2023-04-06T03:39:36;27.00;23.00;14.50
77692;PMS5003;66984;47.404;18.836;2023-04-06T03:40:39;26.00;24.00;14.00
77692;PMS5003;66984;47.404;18.836;2023-04-06T03:41:42;27.25;23.00;14.75
77692;PMS5003;66984;47.404;18.836;2023-04-06T03:42:46;32.00;25.75;16.50
77692;PMS5003;66984;47.404;18.836;2023-04-06T03:43:49;32.50;27.00;17.00
77692;PMS5003;66984;47.404;18.836;2023-04-06T03:44:53;30.00;26.00;16.00
77692;PMS5003;66984;47.404;18.836;2023-04-06T03:45:55;26.00;24.00;14.25
77692;PMS5003;66984;47.404;18.836;2023-04-06T03:46:58;24.00;23.00;14.00
77692;PMS5003;66984;47.404;18.836;2023-04-06T03:48:01;25.50;23.00;14.00
77692;PMS5003;66984;47.404;18.836;2023-04-06T03:49:05;23.00;22.00;14.00
77692;PMS5003;66984;47.404;18.836;2023-04-06T03:50:08;22.75;22.00;14.00
77692;PMS5003;66984;47.404;18.836;2023-04-06T03:51:11;22.00;21.00;14.00
77692;PMS5003;66984;47.404;18.836;2023-04-06T03:52:14;23.00;22.00;15.00
77692;PMS5003;66984;47.404;18.836;2023-04-06T03:53:17;23.25;22.25;14.00
77692;PMS5003;66984;47.404;18.836;2023-04-06T03:54:20;23.00;22.50;14.00
77692;PMS5003;66984;47.404;18.836;2023-04-06T03:55:23;22.75;21.25;14.00
77692;PMS5003;66984;47.404;18.836;2023-04-06T03:56:25;23.00;22.00;14.00
77692;PMS5003;66984;47.404;18.836;2023-04-06T03:57:29;21.00;20.00;14.00
77692;PMS5003;66984;47.404;18.836;2023-04-06T03:58:33;22.00;20.00;14.00
77692;PMS5003;66984;47.404;18.836;2023-04-06T03:59:36;20.00;20.00;14.00
77692;PMS5003;66984;47.404;18.836;2023-04-06T04:00:39;20.00;20.00;13.00
77692;PMS5003;66984;47.404;18.836;2023-04-06T04:01:42;20.00;20.00;13.00
77692;PMS5003;66984;47.404;18.836;2023-04-06T04:02:45;22.00;19.00;12.00
77692;PMS5003;66984;47.404;18.836;2023-04-06T04:03:48;20.00;19.00;12.00
77692;PMS5003;66984;47.404;18.836;2023-04-06T04:04:52;21.00;20.00;12.00
77692;PMS5003;66984;47.404;18.836;2023-04-06T04:05:55;24.00;22.00;12.00
77692;PMS5003;66984;47.404;18.836;2023-04-06T04:06:58;25.00;23.00;14.00
77692;PMS5003;66984;47.404;18.836;2023-04-06T04:08:01;25.00;23.00;14.00
77692;PMS5003;66984;47.404;18.836;2023-04-06T04:09:04;26.00;22.50;14.00
77692;PMS5003;66984;47.404;18.836;2023-04-06T04:10:07;25.00;22.50;14.00
77692;PMS5003;66984;47.404;18.836;2023-04-06T04:11:11;25.50;23.00;14.00
77692;PMS5003;66984;47.404;18.836;2023-04-06T04:12:14;27.50;23.25;14.00
77692;PMS5003;66984;47.404;18.836;2023-04-06T04:13:17;25.50;23.00;14.00
77692;PMS5003;66984;47.404;18.836;2023-04-06T04:14:21;25.00;22.50;14.00
77692;PMS5003;66984;47.404;18.836;2023-04-06T04:15:24;25.50;23.00;15.00
77692;PMS5003;66984;47.404;18.836;2023-04-06T04:16:27;26.50;24.00;15.00
77692;PMS5003;66984;47.404;18.836;2023-04-06T04:17:30;28.00;25.00;15.00
77692;PMS5003;66984;47.404;18.836;2023-04-06T04:18:33;29.25;25.50;15.50
77692;PMS5003;66984;47.404;18.836;2023-04-06T04:19:36;31.50;28.00;17.00
77692;PMS5003;66984;47.404;18.836;2023-04-06T04:20:38;28.75;25.75;17.00
77692;PMS5003;66984;47.404;18.836;2023-04-06T04:21:42;29.50;26.00;17.00
77692;PMS5003;66984;47.404;18.836;2023-04-06T04:22:49;28.00;25.50;17.00
77692;PMS5003;66984;47.404;18.836;2023-04-06T04:23:52;28.75;25.00;16.00
77692;PMS5003;66984;47.404;18.836;2023-04-06T04:24:55;27.00;24.00;16.00
77692;PMS5003;66984;47.404;18.836;2023-04-06T04:25:58;26.00;24.00;16.00
77692;PMS5003;66984;47.404;18.836;2023-04-06T04:27:01;24.00;23.00;15.00
77692;PMS5003;66984;47.404;18.836;2023-04-06T04:28:04;25.50;22.50;15.00
77692;PMS5003;66984;47.404;18.836;2023-04-06T04:29:07;24.00;23.00;15.00
77692;PMS5003;66984;47.404;18.836;2023-04-06T04:30:10;26.00;24.00;16.00
77692;PMS5003;66984;47.404;18.836;2023-04-06T04:31:13;26.00;24.00;16.00
77692;PMS5003;66984;47.404;18.836;2023-04-06T04:32:16;25.50;24.00;15.00
77692;PMS5003;66984;47.404;18.836;2023-04-06T04:33:19;32.25;26.25;17.00
77692;PMS5003;66984;47.404;18.836;2023-04-06T04:34:22;35.00;29.50;18.50
77692;PMS5003;66984;47.404;18.836;2023-04-06T04:35:29;36.00;30.00;19.00
77692;PMS5003;66984;47.404;18.836;2023-04-06T04:36:32;33.50;28.00;18.25
77692;PMS5003;66984;47.404;18.836;2023-04-06T04:37:35;30.00;25.00;17.00
77692;PMS5003;66984;47.404;18.836;2023-04-06T04:38:37;28.50;24.75;17.00
77692;PMS5003;66984;47.404;18.836;2023-04-06T04:39:40;27.75;25.00;17.00
77692;PMS5003;66984;47.404;18.836;2023-04-06T04:40:43;27.25;24.00;16.00
77692;PMS5003;66984;47.404;18.836;2023-04-06T04:41:46;27.25;24.00;15.00
77692;PMS5003;66984;47.404;18.836;2023-04-06T04:42:49;27.00;24.00;16.00
77692;PMS5003;66984;47.404;18.836;2023-04-06T04:43:53;28.00;25.00;16.00
77692;PMS5003;66984;47.404;18.836;2023-04-06T04:44:56;26.00;24.00;15.00
77692;PMS5003;66984;47.404;18.836;2023-04-06T04:45:59;29.75;26.00;16.00
77692;PMS5003;66984;47.404;18.836;2023-04-06T04:47:02;31.00;26.75;17.00
77692;PMS5003;66984;47.404;18.836;2023-04-06T04:48:05;31.50;26.00;17.00
77692;PMS5003;66984;47.404;18.836;2023-04-06T04:49:08;32.00;26.00;17.00
77692;PMS5003;66984;47.404;18.836;2023-04-06T04:50:11;31.00;26.00;17.00
77692;PMS5003;66984;47.404;18.836;2023-04-06T04:51:14;32.00;26.00;17.00
77692;PMS5003;66984;47.404;18.836;2023-04-06T04:52:17;31.00;26.00;17.00
77692;PMS5003;66984;47.404;18.836;2023-04-06T04:53:20;28.75;26.00;16.00
77692;PMS5003;66984;47.404;18.836;2023-04-06T04:54:25;32.00;26.50;17.00
77692;PMS5003;66984;47.404;18.836;2023-04-06T04:55:28;29.75;26.00;17.00
77692;PMS5003;66984;47.404;18.836;2023-04-06T04:56:31;27.25;25.00;16.00
77692;PMS5003;66984;47.404;18.836;2023-04-06T04:57:34;27.00;24.00;16.00
77692;PMS5003;66984;47.404;18.836;2023-04-06T04:58:37;26.00;24.00;16.00
77692;PMS5003;66984;47.404;18.836;2023-04-06T04:59:40;26.00;24.00;15.75
77692;PMS5003;66984;47.404;18.836;2023-04-06T05:00:43;26.00;23.00;15.00
77692;PMS5003;66984;47.404;18.836;2023-04-06T05:01:46;26.00;23.00;14.00
77692;PMS5003;66984;47.404;18.836;2023-04-06T05:02:55;25.00;23.00;14.25
77692;PMS5003;66984;47.404;18.836;2023-04-06T05:03:58;25.00;23.00;14.00
77692;PMS5003;66984;47.404;18.836;2023-04-06T05:05:02;26.00;24.00;14.25
77692;PMS5003;66984;47.404;18.836;2023-04-06T05:06:05;26.50;24.00;15.00
77692;PMS5003;66984;47.404;18.836;2023-04-06T05:07:09;26.25;24.00;15.00
77692;PMS5003;66984;47.404;18.836;2023-04-06T05:08:12;27.50;25.50;15.00
77692;PMS5003;66984;47.404;18.836;2023-04-06T05:09:15;27.00;25.00;15.00
77692;PMS5003;66984;47.404;18.836;2023-04-06T05:10:18;25.25;23.50;15.00
77692;PMS5003;66984;47.404;18.836;2023-04-06T05:11:21;26.00;23.75;14.00
77692;PMS5003;66984;47.404;18.836;2023-04-06T05:12:23;26.00;23.50;15.00
77692;PMS5003;66984;47.404;18.836;2023-04-06T05:13:27;25.00;23.50;14.50
77692;PMS5003;66984;47.404;18.836;2023-04-06T05:14:32;27.25;23.75;15.50
77692;PMS5003;66984;47.404;18.836;2023-04-06T05:15:35;26.00;23.50;14.50
77692;PMS5003;66984;47.404;18.836;2023-04-06T05:16:40;23.50;22.00;14.00
77692;PMS5003;66984;47.404;18.836;2023-04-06T05:17:43;25.25;23.50;15.00
77692;PMS5003;66984;47.404;18.836;2023-04-06T05:18:47;26.00;23.50;15.00
77692;PMS5003;66984;47.404;18.836;2023-04-06T05:19:50;25.00;23.50;14.50
77692;PMS5003;66984;47.404;18.836;2023-04-06T05:20:53;25.00;23.50;15.00
77692;PMS5003;66984;47.404;18.836;2023-04-06T05:21:56;26.00;23.50;15.00
77692;PMS5003;66984;47.404;18.836;2023-04-06T05:22:59;25.00;23.00;14.50
77692;PMS5003;66984;47.404;18.836;2023-04-06T05:24:02;26.00;23.50;16.00
77692;PMS5003;66984;47.404;18.836;2023-04-06T05:25:05;27.00;25.00;17.00
77692;PMS5003;66984;47.404;18.836;2023-04-06T05:26:08;27.25;24.00;17.00
77692;PMS5003;66984;47.404;18.836;2023-04-06T05:27:11;26.50;23.50;16.00
77692;PMS5003;66984;47.404;18.836;2023-04-06T05:28:14;28.00;25.00;16.00
77692;PMS5003;66984;47.404;18.836;2023-04-06T05:29:18;27.00;25.00;15.00
77692;PMS5003;66984;47.404;18.836;2023-04-06T05:30:22;27.75;24.50;16.00
77692;PMS5003;66984;47.404;18.836;2023-04-06T05:31:25;30.50;27.00;17.00
77692;PMS5003;66984;47.404;18.836;2023-04-06T05:32:28;29.00;26.00;16.50
77692;PMS5003;66984;47.404;18.836;2023-04-06T05:33:32;31.00;26.00;16.00
77692;PMS5003;66984;47.404;18.836;2023-04-06T05:34:35;29.00;26.00;16.00
77692;PMS5003;66984;47.404;18.836;2023-04-06T05:35:38;28.00;24.00;16.00
77692;PMS5003;66984;47.404;18.836;2023-04-06T05:36:41;27.00;24.00;15.50
77692;PMS5003;66984;47.404;18.836;2023-04-06T05:37:45;26.50;24.00;15.00
77692;PMS5003;66984;47.404;18.836;2023-04-06T05:38:48;27.00;23.00;15.00
77692;PMS5003;66984;47.404;18.836;2023-04-06T05:39:53;25.75;22.00;14.50
77692;PMS5003;66984;47.404;18.836;2023-04-06T05:40:56;26.25;22.00;15.00
77692;PMS5003;66984;47.404;18.836;2023-04-06T05:42:02;24.00;22.00;15.00
77692;PMS5003;66984;47.404;18.836;2023-04-06T05:43:07;27.00;24.00;15.00
77692;PMS5003;66984;47.404;18.836;2023-04-06T05:44:10;27.00;24.00;15.00
77692;PMS5003;66984;47.404;18.836;2023-04-06T05:45:13;28.00;24.00;15.00
77692;PMS5003;66984;47.404;18.836;2023-04-06T05:46:19;28.00;24.00;15.00
77692;PMS5003;66984;47.404;18.836;2023-04-06T05:47:22;27.00;24.00;15.75
77692;PMS5003;66984;47.404;18.836;2023-04-06T05:48:25;30.00;26.25;16.00
77692;PMS5003;66984;47.404;18.836;2023-04-06T05:49:28;28.00;25.00;17.00
77692;PMS5003;66984;47.404;18.836;2023-04-06T05:50:31;27.00;24.00;17.00